Map

Track Data

SID SEASON NUMBER BASIN SUBBASIN NAME ISO_TIME NATURE LAT LON WMO_WIND WMO_PRES WMO_AGENCY TRACK_TYPE DIST2LAND LANDFALL IFLAG USA_AGENCY USA_ATCF_ID USA_LAT USA_LON USA_RECORD USA_STATUS USA_WIND USA_PRES USA_SSHS USA_R34_NE USA_R34_SE USA_R34_SW USA_R34_NW USA_R50_NE USA_R50_SE USA_R50_SW USA_R50_NW USA_R64_NE USA_R64_SE USA_R64_SW USA_R64_NW USA_POCI USA_ROCI USA_RMW USA_EYE TOKYO_LAT TOKYO_LON TOKYO_GRADE TOKYO_WIND TOKYO_PRES TOKYO_R50_DIR TOKYO_R50_LONG TOKYO_R50_SHORT TOKYO_R30_DIR TOKYO_R30_LONG TOKYO_R30_SHORT TOKYO_LAND CMA_LAT CMA_LON CMA_CAT CMA_WIND CMA_PRES HKO_LAT HKO_LON HKO_CAT HKO_WIND HKO_PRES NEWDELHI_LAT NEWDELHI_LON NEWDELHI_GRADE NEWDELHI_WIND NEWDELHI_PRES NEWDELHI_CI NEWDELHI_DP NEWDELHI_POCI REUNION_LAT REUNION_LON REUNION_TYPE REUNION_WIND REUNION_PRES REUNION_TNUM REUNION_CI REUNION_RMW REUNION_R34_NE REUNION_R34_SE REUNION_R34_SW REUNION_R34_NW REUNION_R50_NE REUNION_R50_SE REUNION_R50_SW REUNION_R50_NW REUNION_R64_NE REUNION_R64_SE REUNION_R64_SW REUNION_R64_NW BOM_LAT BOM_LON BOM_TYPE BOM_WIND BOM_PRES BOM_TNUM BOM_CI BOM_RMW BOM_R34_NE BOM_R34_SE BOM_R34_SW BOM_R34_NW BOM_R50_NE BOM_R50_SE BOM_R50_SW BOM_R50_NW BOM_R64_NE BOM_R64_SE BOM_R64_SW BOM_R64_NW BOM_ROCI BOM_POCI BOM_EYE BOM_POS_METHOD BOM_PRES_METHOD NADI_LAT NADI_LON NADI_CAT NADI_WIND NADI_PRES WELLINGTON_LAT WELLINGTON_LON WELLINGTON_WIND WELLINGTON_PRES DS824_LAT DS824_LON DS824_STAGE DS824_WIND DS824_PRES TD9636_LAT TD9636_LON TD9636_STAGE TD9636_WIND TD9636_PRES TD9635_LAT TD9635_LON TD9635_WIND TD9635_PRES TD9635_ROCI NEUMANN_LAT NEUMANN_LON NEUMANN_CLASS NEUMANN_WIND NEUMANN_PRES MLC_LAT MLC_LON MLC_CLASS MLC_WIND MLC_PRES USA_GUST BOM_GUST BOM_GUST_PER REUNION_GUST REUNION_GUST_PER USA_SEAHGT USA_SEARAD_NE USA_SEARAD_SE USA_SEARAD_SW USA_SEARAD_NW STORM_SPEED STORM_DIR
1918247N20088 1918 57 NI BB NOT_NAMED 1918-09-04 00:00:00 TS 19.9000 88.0000 main 137 123 _________O____ -1 19.9000 88.0000 TC 30 4 0
1918247N20088 1918 57 NI BB NOT_NAMED 1918-09-04 03:00:00 TS 20.1033 88.0034 main 123 109 _________PO___ -1 20.2050 88.0050 TC 30 19.9000 88.0000 1 5 358
1918247N20088 1918 57 NI BB NOT_NAMED 1918-09-04 06:00:00 TS 20.3694 87.9999 main 109 104 _________OP___ -1 20.5000 88.0000 TC 30 20.1734 87.9996 1 5 0
1918247N20088 1918 57 NI BB NOT_NAMED 1918-09-04 09:00:00 TS 20.6446 87.9797 main 104 84 _________PP___ -1 20.7850 87.9724 TC 30 20.4575 87.9895 1 6 353
1918247N20088 1918 57 NI BB NOT_NAMED 1918-09-04 12:00:00 TS 20.9314 87.9298 main 84 44 _________OP___ -1 21.1000 87.9000 TC 30 20.7628 87.9596 1 7 348
1918247N20088 1918 57 NI BB NOT_NAMED 1918-09-04 15:00:00 TS 21.3038 87.8251 main 44 0 _________PO___ -1 21.5076 87.7502 TC 30 21.1000 87.9000 1 8 344
1918247N20088 1918 57 NI BB NOT_NAMED 1918-09-04 18:00:00 TS 21.6853 87.7029 main 0 0 _________OP___ -1 21.9000 87.6000 TC 30 21.4707 87.8058 1 8 345
1918247N20088 1918 57 NI BB NOT_NAMED 1918-09-04 21:00:00 TS 22.0250 87.6103 main 0 0 _________PP___ -1 22.2100 87.5274 TC 30 21.8401 87.6932 1 6 346
1918247N20088 1918 57 NI BB NOT_NAMED 1918-09-05 00:00:00 TS 22.2822 87.5419 main 0 0 _________OP___ -1 22.4000 87.5000 TC 30 22.1644 87.5839 1 4 345
1918247N20088 1918 57 NI BB NOT_NAMED 1918-09-05 03:00:00 TS 22.4187 87.4962 main 0 0 _________PO___ -1 22.4375 87.4925 TC 30 22.4000 87.5000 1 2 342
1918247N20088 1918 57 NI BB NOT_NAMED 1918-09-05 06:00:00 TS 22.4467 87.4855 main 0 0 _________OP___ -1 22.4000 87.5000 TC 30 22.4934 87.4710 1 0 319
1918247N20088 1918 57 NI BB NOT_NAMED 1918-09-05 09:00:00 TS 22.4487 87.4849 main 0 0 _________PP___ -1 22.4000 87.5000 TC 30 22.4974 87.4697 1 0 0
1918247N20088 1918 57 NI BB NOT_NAMED 1918-09-05 12:00:00 TS 22.4264 87.4918 main 0 0 _________OP___ -1 22.4000 87.5000 TC 30 22.4528 87.4836 1 1 151
1918247N20088 1918 57 NI BB NOT_NAMED 1918-09-05 15:00:00 TS 22.4000 87.5000 main 0 0 _________PO___ -1 22.4000 87.5000 TC 30 22.4000 87.5000 1 0 0
1918247N20088 1918 57 NI BB NOT_NAMED 1918-09-05 18:00:00 TS 22.3837 87.5141 main 0 0 _________OP___ -1 22.4000 87.5000 TC 30 22.3674 87.5283 1 1 138
1918247N20088 1918 57 NI BB NOT_NAMED 1918-09-05 21:00:00 TS 22.3587 87.5373 main 0 0 _________PP___ -1 22.3775 87.5224 TC 30 22.3399 87.5522 1 0 0
1918247N20088 1918 57 NI BB NOT_NAMED 1918-09-06 00:00:00 TS 22.3712 87.5250 main 0 0 _________OP___ -1 22.4000 87.5000 TC 30 22.3424 87.5500 1 1 318
1918247N20088 1918 57 NI BB NOT_NAMED 1918-09-06 03:00:00 TS 22.4563 87.4400 main 0 0 _________PO___ -1 22.5125 87.3800 TC 30 22.4000 87.5000 1 3 319
1918247N20088 1918 57 NI BB NOT_NAMED 1918-09-06 06:00:00 TS 22.6233 87.2898 main 0 0 _________OP___ -1 22.7000 87.2000 TC 30 22.5466 87.3796 1 5 322
1918247N20088 1918 57 NI BB NOT_NAMED 1918-09-06 09:00:00 TS 22.8451 87.1090 main 0 0 _________PP___ -1 22.9425 87.0076 TC 30 22.7476 87.2104 1 6 323
1918247N20088 1918 57 NI BB NOT_NAMED 1918-09-06 12:00:00 TS 23.0874 86.9054 main 0 0 _________OP___ -1 23.2000 86.8000 TC 30 22.9747 87.0109 1 6 321
1918247N20088 1918 57 NI BB NOT_NAMED 1918-09-06 15:00:00 TS 23.3075 86.7000 main 0 0 _________PO___ -1 23.4150 86.5999 TC 30 23.2000 86.8000 1 5 318
1918247N20088 1918 57 NI BB NOT_NAMED 1918-09-06 18:00:00 TS 23.4864 86.5105 main 0 0 _________OP___ -1 23.6000 86.4000 TC 30 23.4013 86.5934 1 5 314
1918247N20088 1918 57 NI BB NOT_NAMED 1918-09-06 21:00:00 TS 23.6511 86.3156 main 0 0 _________PP___ -1 23.7576 86.2001 TC 30 23.5801 86.3925 1 5 312
1918247N20088 1918 57 NI BB NOT_NAMED 1918-09-07 00:00:00 TS 23.7959 86.1303 main 0 0 _________OP___ -1 23.9000 86.0000 TC 30 23.7439 86.1954 1 4 311
1918247N20088 1918 57 NI BB NOT_NAMED 1918-09-07 03:00:00 NR 23.9000 86.0000 main 0 __________O___ -1 TC 23.9000 86.0000 1 3 311

About IBTrACS Database

This database is a web-friendly format of International Best Track Archive for Climate Stewardship (IBTrACS), a global best track data archive curated by NOAA dating back to 1842.

Updated: 2021-12-03